sensor_id;sensor_type;location;lat;lon;timestamp;temperature;humidity
21622;DHT22;10973;46.706;12.340;2022-12-10T00:01:37;-0.60;99.90
21622;DHT22;10973;46.706;12.340;2022-12-10T00:04:06;-0.70;99.90
21622;DHT22;10973;46.706;12.340;2022-12-10T00:06:35;-0.70;99.90
21622;DHT22;10973;46.706;12.340;2022-12-10T00:09:07;-0.70;99.90
21622;DHT22;10973;46.706;12.340;2022-12-10T00:11:37;-0.70;99.90
21622;DHT22;10973;46.706;12.340;2022-12-10T00:14:06;-0.80;99.90
21622;DHT22;10973;46.706;12.340;2022-12-10T00:16:34;-0.80;99.90
21622;DHT22;10973;46.706;12.340;2022-12-10T00:19:03;-0.80;99.90
21622;DHT22;10973;46.706;12.340;2022-12-10T00:21:32;-0.90;99.90
21622;DHT22;10973;46.706;12.340;2022-12-10T00:24:02;-0.90;99.90
21622;DHT22;10973;46.706;12.340;2022-12-10T00:26:36;-0.90;99.90
21622;DHT22;10973;46.706;12.340;2022-12-10T00:29:06;-0.90;99.90
21622;DHT22;10973;46.706;12.340;2022-12-10T00:31:37;-1.00;99.90
21622;DHT22;10973;46.706;12.340;2022-12-10T00:34:07;-1.00;99.90
21622;DHT22;10973;46.706;12.340;2022-12-10T00:36:46;-1.00;99.90
21622;DHT22;10973;46.706;12.340;2022-12-10T00:39:19;-1.00;99.90
21622;DHT22;10973;46.706;12.340;2022-12-10T00:41:48;-1.00;99.90
21622;DHT22;10973;46.706;12.340;2022-12-10T00:44:16;-1.00;99.90
21622;DHT22;10973;46.706;12.340;2022-12-10T00:46:43;-1.00;99.90
21622;DHT22;10973;46.706;12.340;2022-12-10T00:49:11;-1.00;99.90
21622;DHT22;10973;46.706;12.340;2022-12-10T00:51:39;-0.90;99.90
21622;DHT22;10973;46.706;12.340;2022-12-10T00:54:08;-0.90;99.90
21622;DHT22;10973;46.706;12.340;2022-12-10T00:56:35;-0.90;99.90
21622;DHT22;10973;46.706;12.340;2022-12-10T00:59:03;-0.90;99.90
21622;DHT22;10973;46.706;12.340;2022-12-10T01:01:36;-0.90;99.90
21622;DHT22;10973;46.706;12.340;2022-12-10T01:04:13;-0.90;99.90
21622;DHT22;10973;46.706;12.340;2022-12-10T01:06:50;-0.90;99.90
21622;DHT22;10973;46.706;12.340;2022-12-10T01:09:21;-0.90;99.90
21622;DHT22;10973;46.706;12.340;2022-12-10T01:12:01;-0.90;99.90
21622;DHT22;10973;46.706;12.340;2022-12-10T01:14:32;-1.00;99.90
21622;DHT22;10973;46.706;12.340;2022-12-10T01:17:04;-1.00;99.90
21622;DHT22;10973;46.706;12.340;2022-12-10T01:19:33;-1.00;99.90
21622;DHT22;10973;46.706;12.340;2022-12-10T01:22:01;-1.00;99.90
21622;DHT22;10973;46.706;12.340;2022-12-10T01:24:29;-1.00;99.90
21622;DHT22;10973;46.706;12.340;2022-12-10T01:26:57;-1.00;99.90
21622;DHT22;10973;46.706;12.340;2022-12-10T01:29:25;-1.00;99.90
21622;DHT22;10973;46.706;12.340;2022-12-10T01:31:54;-0.90;99.90
21622;DHT22;10973;46.706;12.340;2022-12-10T01:34:23;-1.00;99.90
21622;DHT22;10973;46.706;12.340;2022-12-10T01:36:53;-1.00;99.90
21622;DHT22;10973;46.706;12.340;2022-12-10T01:39:21;-1.00;99.90
21622;DHT22;10973;46.706;12.340;2022-12-10T01:41:53;-1.00;99.90
21622;DHT22;10973;46.706;12.340;2022-12-10T01:46:54;-0.90;99.90
21622;DHT22;10973;46.706;12.340;2022-12-10T01:49:33;-0.90;99.90
21622;DHT22;10973;46.706;12.340;2022-12-10T01:52:04;-0.90;99.90
21622;DHT22;10973;46.706;12.340;2022-12-10T01:54:36;-0.90;99.90
21622;DHT22;10973;46.706;12.340;2022-12-10T01:57:12;-0.90;99.90
21622;DHT22;10973;46.706;12.340;2022-12-10T01:59:44;-0.90;99.90
21622;DHT22;10973;46.706;12.340;2022-12-10T02:02:16;-0.90;99.90
21622;DHT22;10973;46.706;12.340;2022-12-10T02:10:53;-0.80;99.90
21622;DHT22;10973;46.706;12.340;2022-12-10T02:20:02;-0.70;99.90
21622;DHT22;10973;46.706;12.340;2022-12-10T02:22:57;-0.70;99.90
21622;DHT22;10973;46.706;12.340;2022-12-10T02:31:31;-0.70;99.90
21622;DHT22;10973;46.706;12.340;2022-12-10T02:34:03;-0.70;99.90
21622;DHT22;10973;46.706;12.340;2022-12-10T02:36:35;-0.70;99.90
21622;DHT22;10973;46.706;12.340;2022-12-10T02:39:09;-0.70;99.90
21622;DHT22;10973;46.706;12.340;2022-12-10T02:41:47;-0.70;99.90
21622;DHT22;10973;46.706;12.340;2022-12-10T02:44:19;-0.70;99.90
21622;DHT22;10973;46.706;12.340;2022-12-10T02:46:52;-0.70;99.90
21622;DHT22;10973;46.706;12.340;2022-12-10T02:49:23;-0.70;99.90
21622;DHT22;10973;46.706;12.340;2022-12-10T02:51:52;-0.60;99.90
21622;DHT22;10973;46.706;12.340;2022-12-10T03:00:13;-0.60;99.90
21622;DHT22;10973;46.706;12.340;2022-12-10T03:11:19;-0.60;99.90
21622;DHT22;10973;46.706;12.340;2022-12-10T03:13:59;-0.60;99.90
21622;DHT22;10973;46.706;12.340;2022-12-10T03:16:45;-0.50;99.90
21622;DHT22;10973;46.706;12.340;2022-12-10T03:19:22;-0.50;99.90
21622;DHT22;10973;46.706;12.340;2022-12-10T03:21:53;-0.50;99.90
21622;DHT22;10973;46.706;12.340;2022-12-10T03:24:25;-0.50;99.90
21622;DHT22;10973;46.706;12.340;2022-12-10T03:26:54;-0.50;99.90
21622;DHT22;10973;46.706;12.340;2022-12-10T03:29:33;-0.50;99.90
21622;DHT22;10973;46.706;12.340;2022-12-10T03:32:06;-0.50;99.90
21622;DHT22;10973;46.706;12.340;2022-12-10T03:34:34;-0.50;99.90
21622;DHT22;10973;46.706;12.340;2022-12-10T03:37:04;-0.50;99.90
21622;DHT22;10973;46.706;12.340;2022-12-10T03:39:33;-0.50;99.90
21622;DHT22;10973;46.706;12.340;2022-12-10T03:42:01;-0.50;99.90
21622;DHT22;10973;46.706;12.340;2022-12-10T03:44:30;-0.50;99.90
21622;DHT22;10973;46.706;12.340;2022-12-10T03:47:00;-0.50;99.90
21622;DHT22;10973;46.706;12.340;2022-12-10T03:49:29;-0.50;99.90
21622;DHT22;10973;46.706;12.340;2022-12-10T03:51:56;-0.50;99.90
21622;DHT22;10973;46.706;12.340;2022-12-10T03:54:23;-0.50;99.90
21622;DHT22;10973;46.706;12.340;2022-12-10T03:56:51;-0.50;99.90
21622;DHT22;10973;46.706;12.340;2022-12-10T03:59:18;-0.50;99.90
21622;DHT22;10973;46.706;12.340;2022-12-10T04:01:46;-0.50;99.90
21622;DHT22;10973;46.706;12.340;2022-12-10T04:04:13;-0.50;99.90
21622;DHT22;10973;46.706;12.340;2022-12-10T04:06:42;-0.50;99.90
21622;DHT22;10973;46.706;12.340;2022-12-10T04:09:11;-0.50;99.90
21622;DHT22;10973;46.706;12.340;2022-12-10T04:11:40;-0.50;99.90
21622;DHT22;10973;46.706;12.340;2022-12-10T04:14:11;-0.50;99.90
21622;DHT22;10973;46.706;12.340;2022-12-10T04:16:40;-0.50;99.90
21622;DHT22;10973;46.706;12.340;2022-12-10T04:19:12;-0.50;99.90
21622;DHT22;10973;46.706;12.340;2022-12-10T04:21:42;-0.50;99.90
21622;DHT22;10973;46.706;12.340;2022-12-10T04:24:12;-0.50;99.90
21622;DHT22;10973;46.706;12.340;2022-12-10T04:26:39;-0.50;99.90
21622;DHT22;10973;46.706;12.340;2022-12-10T04:29:07;-0.50;99.90
21622;DHT22;10973;46.706;12.340;2022-12-10T04:31:36;-0.50;99.90
21622;DHT22;10973;46.706;12.340;2022-12-10T04:34:04;-0.50;99.90
21622;DHT22;10973;46.706;12.340;2022-12-10T04:36:31;-0.50;99.90
21622;DHT22;10973;46.706;12.340;2022-12-10T04:38:58;-0.50;99.90
21622;DHT22;10973;46.706;12.340;2022-12-10T04:41:25;-0.50;99.90
21622;DHT22;10973;46.706;12.340;2022-12-10T04:43:53;-0.50;99.90
21622;DHT22;10973;46.706;12.340;2022-12-10T04:46:20;-0.60;99.90
21622;DHT22;10973;46.706;12.340;2022-12-10T04:48:48;-0.60;99.90
21622;DHT22;10973;46.706;12.340;2022-12-10T04:51:15;-0.60;99.90
21622;DHT22;10973;46.706;12.340;2022-12-10T04:53:42;-0.60;99.90
21622;DHT22;10973;46.706;12.340;2022-12-10T04:56:09;-0.50;99.90
21622;DHT22;10973;46.706;12.340;2022-12-10T04:58:36;-0.50;99.90
21622;DHT22;10973;46.706;12.340;2022-12-10T05:01:06;-0.50;99.90
21622;DHT22;10973;46.706;12.340;2022-12-10T05:03:35;-0.50;99.90
21622;DHT22;10973;46.706;12.340;2022-12-10T05:06:07;-0.50;99.90
21622;DHT22;10973;46.706;12.340;2022-12-10T05:08:37;-0.50;99.90
21622;DHT22;10973;46.706;12.340;2022-12-10T05:11:14;-0.60;99.90
21622;DHT22;10973;46.706;12.340;2022-12-10T05:13:43;-0.60;99.90
21622;DHT22;10973;46.706;12.340;2022-12-10T05:16:13;-0.60;99.90
21622;DHT22;10973;46.706;12.340;2022-12-10T05:18:42;-0.60;99.90
21622;DHT22;10973;46.706;12.340;2022-12-10T05:21:12;-0.60;99.90
21622;DHT22;10973;46.706;12.340;2022-12-10T05:23:44;-0.60;99.90
21622;DHT22;10973;46.706;12.340;2022-12-10T05:26:21;-0.60;99.90
21622;DHT22;10973;46.706;12.340;2022-12-10T05:28:54;-0.60;99.90
21622;DHT22;10973;46.706;12.340;2022-12-10T05:31:25;-0.60;99.90
21622;DHT22;10973;46.706;12.340;2022-12-10T05:33:56;-0.60;99.90
21622;DHT22;10973;46.706;12.340;2022-12-10T05:36:27;-0.60;99.90
21622;DHT22;10973;46.706;12.340;2022-12-10T05:38:56;-0.60;99.90
21622;DHT22;10973;46.706;12.340;2022-12-10T05:41:27;-0.60;99.90
21622;DHT22;10973;46.706;12.340;2022-12-10T05:43:57;-0.50;99.90
21622;DHT22;10973;46.706;12.340;2022-12-10T05:46:28;-0.60;99.90
21622;DHT22;10973;46.706;12.340;2022-12-10T05:48:57;-0.60;99.90
21622;DHT22;10973;46.706;12.340;2022-12-10T05:51:28;-0.60;99.90
21622;DHT22;10973;46.706;12.340;2022-12-10T05:53:58;-0.60;99.90
21622;DHT22;10973;46.706;12.340;2022-12-10T05:56:26;-0.50;99.90
21622;DHT22;10973;46.706;12.340;2022-12-10T05:58:58;-0.50;99.90
21622;DHT22;10973;46.706;12.340;2022-12-10T06:01:30;-0.50;99.90
21622;DHT22;10973;46.706;12.340;2022-12-10T06:04:00;-0.50;99.90
21622;DHT22;10973;46.706;12.340;2022-12-10T06:06:33;-0.40;99.90
21622;DHT22;10973;46.706;12.340;2022-12-10T06:09:03;-0.40;99.90
21622;DHT22;10973;46.706;12.340;2022-12-10T06:11:33;-0.40;99.90
21622;DHT22;10973;46.706;12.340;2022-12-10T06:14:00;-0.40;99.90
21622;DHT22;10973;46.706;12.340;2022-12-10T06:16:28;-0.30;99.90
21622;DHT22;10973;46.706;12.340;2022-12-10T06:18:57;-0.30;99.90
21622;DHT22;10973;46.706;12.340;2022-12-10T06:21:25;-0.30;99.90
21622;DHT22;10973;46.706;12.340;2022-12-10T06:23:52;-0.30;99.90
21622;DHT22;10973;46.706;12.340;2022-12-10T06:26:22;-0.40;99.90
21622;DHT22;10973;46.706;12.340;2022-12-10T06:28:53;-0.30;99.90
21622;DHT22;10973;46.706;12.340;2022-12-10T06:31:21;-0.30;99.90
21622;DHT22;10973;46.706;12.340;2022-12-10T06:33:50;-0.30;99.90
21622;DHT22;10973;46.706;12.340;2022-12-10T06:36:18;-0.30;99.90
21622;DHT22;10973;46.706;12.340;2022-12-10T06:38:46;-0.20;99.90
21622;DHT22;10973;46.706;12.340;2022-12-10T06:41:16;-0.20;99.90
21622;DHT22;10973;46.706;12.340;2022-12-10T06:43:45;-0.30;99.90
21622;DHT22;10973;46.706;12.340;2022-12-10T06:46:14;-0.30;99.90
21622;DHT22;10973;46.706;12.340;2022-12-10T06:48:45;-0.30;99.90
21622;DHT22;10973;46.706;12.340;2022-12-10T06:51:13;-0.30;99.90
21622;DHT22;10973;46.706;12.340;2022-12-10T06:53:41;-0.40;99.90
21622;DHT22;10973;46.706;12.340;2022-12-10T06:56:13;-0.40;99.90
21622;DHT22;10973;46.706;12.340;2022-12-10T06:58:42;-0.30;99.90
21622;DHT22;10973;46.706;12.340;2022-12-10T07:01:19;-0.30;99.90
21622;DHT22;10973;46.706;12.340;2022-12-10T07:03:52;-0.30;99.90
21622;DHT22;10973;46.706;12.340;2022-12-10T07:06:22;-0.40;99.90
21622;DHT22;10973;46.706;12.340;2022-12-10T07:08:51;-0.40;99.90
21622;DHT22;10973;46.706;12.340;2022-12-10T07:11:21;-0.40;99.90
21622;DHT22;10973;46.706;12.340;2022-12-10T07:13:49;-0.50;99.90
21622;DHT22;10973;46.706;12.340;2022-12-10T07:16:23;-0.50;99.90
21622;DHT22;10973;46.706;12.340;2022-12-10T07:18:53;-0.50;99.90
21622;DHT22;10973;46.706;12.340;2022-12-10T07:21:33;-0.60;99.90
21622;DHT22;10973;46.706;12.340;2022-12-10T07:24:04;-0.60;99.90
21622;DHT22;10973;46.706;12.340;2022-12-10T07:26:44;-0.60;99.90
21622;DHT22;10973;46.706;12.340;2022-12-10T07:29:17;-0.60;99.90
21622;DHT22;10973;46.706;12.340;2022-12-10T07:31:47;-0.60;99.90
21622;DHT22;10973;46.706;12.340;2022-12-10T07:34:16;-0.60;99.90
21622;DHT22;10973;46.706;12.340;2022-12-10T07:36:43;-0.60;99.90
21622;DHT22;10973;46.706;12.340;2022-12-10T07:39:12;-0.50;99.90
21622;DHT22;10973;46.706;12.340;2022-12-10T07:41:40;-0.50;99.90
21622;DHT22;10973;46.706;12.340;2022-12-10T07:44:11;-0.40;99.90
21622;DHT22;10973;46.706;12.340;2022-12-10T07:46:39;-0.40;99.90
21622;DHT22;10973;46.706;12.340;2022-12-10T07:49:07;-0.40;99.90
21622;DHT22;10973;46.706;12.340;2022-12-10T07:51:34;-0.40;99.90
21622;DHT22;10973;46.706;12.340;2022-12-10T07:54:02;-0.40;99.90
21622;DHT22;10973;46.706;12.340;2022-12-10T07:56:29;-0.30;99.90
21622;DHT22;10973;46.706;12.340;2022-12-10T07:58:56;-0.30;99.90
21622;DHT22;10973;46.706;12.340;2022-12-10T08:01:25;-0.20;99.90
21622;DHT22;10973;46.706;12.340;2022-12-10T08:03:55;-0.20;99.90
21622;DHT22;10973;46.706;12.340;2022-12-10T08:06:24;-0.10;99.90
21622;DHT22;10973;46.706;12.340;2022-12-10T08:08:53;-0.10;99.90
21622;DHT22;10973;46.706;12.340;2022-12-10T08:11:21;-0.10;99.90
21622;DHT22;10973;46.706;12.340;2022-12-10T08:13:49;0.00;99.90
21622;DHT22;10973;46.706;12.340;2022-12-10T08:16:24;0.10;99.90
21622;DHT22;10973;46.706;12.340;2022-12-10T08:18:56;0.20;99.90
21622;DHT22;10973;46.706;12.340;2022-12-10T08:21:29;0.30;99.90
21622;DHT22;10973;46.706;12.340;2022-12-10T08:23:58;0.30;99.90
21622;DHT22;10973;46.706;12.340;2022-12-10T08:26:29;0.30;99.90
21622;DHT22;10973;46.706;12.340;2022-12-10T08:28:58;0.30;99.90
21622;DHT22;10973;46.706;12.340;2022-12-10T08:31:27;0.40;99.90
21622;DHT22;10973;46.706;12.340;2022-12-10T08:34:03;0.40;99.90
21622;DHT22;10973;46.706;12.340;2022-12-10T08:36:31;0.40;99.90
21622;DHT22;10973;46.706;12.340;2022-12-10T08:38:58;0.40;99.90
21622;DHT22;10973;46.706;12.340;2022-12-10T08:41:25;0.40;99.90
21622;DHT22;10973;46.706;12.340;2022-12-10T08:43:53;0.50;99.90
21622;DHT22;10973;46.706;12.340;2022-12-10T08:46:20;0.50;99.90
21622;DHT22;10973;46.706;12.340;2022-12-10T08:48:47;0.50;99.90
21622;DHT22;10973;46.706;12.340;2022-12-10T08:51:17;0.50;99.90
21622;DHT22;10973;46.706;12.340;2022-12-10T08:53:46;0.50;99.90
21622;DHT22;10973;46.706;12.340;2022-12-10T08:56:14;0.60;99.90
21622;DHT22;10973;46.706;12.340;2022-12-10T08:58:41;0.70;99.90
21622;DHT22;10973;46.706;12.340;2022-12-10T09:01:18;0.70;99.90
21622;DHT22;10973;46.706;12.340;2022-12-10T09:03:46;0.70;99.90
21622;DHT22;10973;46.706;12.340;2022-12-10T09:06:16;0.60;99.90
21622;DHT22;10973;46.706;12.340;2022-12-10T09:08:46;0.70;99.90
21622;DHT22;10973;46.706;12.340;2022-12-10T09:11:19;0.70;99.90
21622;DHT22;10973;46.706;12.340;2022-12-10T09:13:52;0.70;99.90
21622;DHT22;10973;46.706;12.340;2022-12-10T09:16:20;0.80;99.90
21622;DHT22;10973;46.706;12.340;2022-12-10T09:18:47;0.80;99.90
21622;DHT22;10973;46.706;12.340;2022-12-10T09:21:16;0.80;99.90
21622;DHT22;10973;46.706;12.340;2022-12-10T09:23:44;0.90;99.90
21622;DHT22;10973;46.706;12.340;2022-12-10T09:26:13;0.90;99.90
21622;DHT22;10973;46.706;12.340;2022-12-10T09:28:43;1.00;99.90
21622;DHT22;10973;46.706;12.340;2022-12-10T09:31:12;1.00;99.90
21622;DHT22;10973;46.706;12.340;2022-12-10T09:33:47;1.10;99.90
21622;DHT22;10973;46.706;12.340;2022-12-10T09:36:17;1.10;99.90
21622;DHT22;10973;46.706;12.340;2022-12-10T09:38:46;1.20;99.90
21622;DHT22;10973;46.706;12.340;2022-12-10T09:41:27;1.30;99.90
21622;DHT22;10973;46.706;12.340;2022-12-10T09:44:17;1.30;99.90
21622;DHT22;10973;46.706;12.340;2022-12-10T09:47:01;1.40;99.90
21622;DHT22;10973;46.706;12.340;2022-12-10T09:52:33;1.50;99.90
21622;DHT22;10973;46.706;12.340;2022-12-10T09:55:13;1.60;99.90
21622;DHT22;10973;46.706;12.340;2022-12-10T09:57:48;1.60;99.90
21622;DHT22;10973;46.706;12.340;2022-12-10T10:02:58;1.60;99.90
21622;DHT22;10973;46.706;12.340;2022-12-10T10:05:30;1.60;99.90
21622;DHT22;10973;46.706;12.340;2022-12-10T10:08:02;1.60;99.90
21622;DHT22;10973;46.706;12.340;2022-12-10T10:10:38;1.70;99.90
21622;DHT22;10973;46.706;12.340;2022-12-10T10:15:37;1.70;99.90
21622;DHT22;10973;46.706;12.340;2022-12-10T10:18:29;1.70;99.90
21622;DHT22;10973;46.706;12.340;2022-12-10T10:21:01;1.70;99.90
21622;DHT22;10973;46.706;12.340;2022-12-10T10:23:30;1.70;99.90
21622;DHT22;10973;46.706;12.340;2022-12-10T10:25:57;1.70;99.90
21622;DHT22;10973;46.706;12.340;2022-12-10T10:28:26;1.80;99.90
21622;DHT22;10973;46.706;12.340;2022-12-10T10:30:55;1.90;99.90
21622;DHT22;10973;46.706;12.340;2022-12-10T10:33:22;1.90;99.90
21622;DHT22;10973;46.706;12.340;2022-12-10T10:35:54;2.00;99.90
21622;DHT22;10973;46.706;12.340;2022-12-10T10:38:27;2.00;99.90
21622;DHT22;10973;46.706;12.340;2022-12-10T10:41:03;2.00;99.90
21622;DHT22;10973;46.706;12.340;2022-12-10T10:43:42;2.20;99.90
21622;DHT22;10973;46.706;12.340;2022-12-10T10:46:13;2.00;99.90
21622;DHT22;10973;46.706;12.340;2022-12-10T10:48:44;2.00;99.90
21622;DHT22;10973;46.706;12.340;2022-12-10T10:56:11;2.20;99.90
21622;DHT22;10973;46.706;12.340;2022-12-10T11:01:51;2.20;99.90
21622;DHT22;10973;46.706;12.340;2022-12-10T11:07:12;2.30;99.90
21622;DHT22;10973;46.706;12.340;2022-12-10T11:09:49;2.30;99.90
21622;DHT22;10973;46.706;12.340;2022-12-10T11:12:36;2.30;99.90
21622;DHT22;10973;46.706;12.340;2022-12-10T11:17:53;2.30;99.90
21622;DHT22;10973;46.706;12.340;2022-12-10T11:20:25;2.30;99.90
21622;DHT22;10973;46.706;12.340;2022-12-10T11:23:12;2.30;99.90
21622;DHT22;10973;46.706;12.340;2022-12-10T11:26:05;2.30;99.90
21622;DHT22;10973;46.706;12.340;2022-12-10T11:32:05;2.30;99.90
21622;DHT22;10973;46.706;12.340;2022-12-10T11:34:54;2.20;99.90
21622;DHT22;10973;46.706;12.340;2022-12-10T11:37:39;2.20;99.90
21622;DHT22;10973;46.706;12.340;2022-12-10T11:43:33;2.20;99.90
21622;DHT22;10973;46.706;12.340;2022-12-10T11:49:14;2.20;99.90
21622;DHT22;10973;46.706;12.340;2022-12-10T11:51:46;2.20;99.90
21622;DHT22;10973;46.706;12.340;2022-12-10T12:06:11;2.30;99.90
21622;DHT22;10973;46.706;12.340;2022-12-10T12:09:15;2.30;99.90
21622;DHT22;10973;46.706;12.340;2022-12-10T12:15:00;2.40;99.90
21622;DHT22;10973;46.706;12.340;2022-12-10T12:18:02;2.40;99.90
21622;DHT22;10973;46.706;12.340;2022-12-10T12:20:49;2.40;99.90
21622;DHT22;10973;46.706;12.340;2022-12-10T12:26:39;2.50;99.90
21622;DHT22;10973;46.706;12.340;2022-12-10T12:29:28;2.50;99.90
21622;DHT22;10973;46.706;12.340;2022-12-10T12:32:21;2.50;99.90
21622;DHT22;10973;46.706;12.340;2022-12-10T12:49:57;2.50;99.90
21622;DHT22;10973;46.706;12.340;2022-12-10T12:52:49;2.60;99.90
21622;DHT22;10973;46.706;12.340;2022-12-10T12:58:30;2.50;99.90
21622;DHT22;10973;46.706;12.340;2022-12-10T13:01:23;2.60;99.90
21622;DHT22;10973;46.706;12.340;2022-12-10T13:03:59;2.70;99.90
21622;DHT22;10973;46.706;12.340;2022-12-10T13:06:29;2.50;99.90
21622;DHT22;10973;46.706;12.340;2022-12-10T13:11:45;2.50;99.90
21622;DHT22;10973;46.706;12.340;2022-12-10T13:14:36;2.50;99.90
21622;DHT22;10973;46.706;12.340;2022-12-10T13:17:32;2.40;99.90
21622;DHT22;10973;46.706;12.340;2022-12-10T13:23:02;2.30;99.90
21622;DHT22;10973;46.706;12.340;2022-12-10T13:31:21;2.30;99.90
21622;DHT22;10973;46.706;12.340;2022-12-10T13:42:25;2.30;99.90
21622;DHT22;10973;46.706;12.340;2022-12-10T13:44:59;2.30;99.90
21622;DHT22;10973;46.706;12.340;2022-12-10T13:50:16;2.20;99.90
21622;DHT22;10973;46.706;12.340;2022-12-10T13:53:08;2.20;99.90
21622;DHT22;10973;46.706;12.340;2022-12-10T13:55:59;2.10;99.90
21622;DHT22;10973;46.706;12.340;2022-12-10T14:01:35;2.10;99.90
21622;DHT22;10973;46.706;12.340;2022-12-10T14:04:39;2.00;99.90
21622;DHT22;10973;46.706;12.340;2022-12-10T14:07:17;2.10;99.90
21622;DHT22;10973;46.706;12.340;2022-12-10T14:09:52;2.10;99.90
21622;DHT22;10973;46.706;12.340;2022-12-10T14:12:37;2.10;99.90
21622;DHT22;10973;46.706;12.340;2022-12-10T14:17:52;2.00;99.90
21622;DHT22;10973;46.706;12.340;2022-12-10T14:20:26;2.00;99.90
21622;DHT22;10973;46.706;12.340;2022-12-10T14:23:03;2.00;99.90
21622;DHT22;10973;46.706;12.340;2022-12-10T14:25:51;2.00;99.90
21622;DHT22;10973;46.706;12.340;2022-12-10T14:28:19;1.90;99.90
21622;DHT22;10973;46.706;12.340;2022-12-10T14:30:49;1.90;99.90
21622;DHT22;10973;46.706;12.340;2022-12-10T14:33:22;1.90;99.90
21622;DHT22;10973;46.706;12.340;2022-12-10T14:35:52;1.90;99.90
21622;DHT22;10973;46.706;12.340;2022-12-10T14:38:25;1.80;99.90
21622;DHT22;10973;46.706;12.340;2022-12-10T14:40:57;1.80;99.90
21622;DHT22;10973;46.706;12.340;2022-12-10T14:46:13;1.80;99.90
21622;DHT22;10973;46.706;12.340;2022-12-10T14:48:43;1.80;99.90
21622;DHT22;10973;46.706;12.340;2022-12-10T14:51:16;1.80;99.90
21622;DHT22;10973;46.706;12.340;2022-12-10T14:53:45;1.80;99.90
21622;DHT22;10973;46.706;12.340;2022-12-10T14:56:35;1.70;99.90
21622;DHT22;10973;46.706;12.340;2022-12-10T14:59:16;1.80;99.90
21622;DHT22;10973;46.706;12.340;2022-12-10T15:01:50;1.70;99.90
21622;DHT22;10973;46.706;12.340;2022-12-10T15:04:24;1.70;99.90
21622;DHT22;10973;46.706;12.340;2022-12-10T15:07:05;1.70;99.90
21622;DHT22;10973;46.706;12.340;2022-12-10T15:09:38;1.80;99.90
21622;DHT22;10973;46.706;12.340;2022-12-10T15:12:15;1.80;99.90
21622;DHT22;10973;46.706;12.340;2022-12-10T15:15:39;1.80;99.90
21622;DHT22;10973;46.706;12.340;2022-12-10T15:28:51;1.70;99.90
21622;DHT22;10973;46.706;12.340;2022-12-10T15:31:30;1.70;99.90
21622;DHT22;10973;46.706;12.340;2022-12-10T15:34:07;1.70;99.90
21622;DHT22;10973;46.706;12.340;2022-12-10T15:36:41;1.20;99.90
21622;DHT22;10973;46.706;12.340;2022-12-10T15:39:32;1.70;99.90
21622;DHT22;10973;46.706;12.340;2022-12-10T15:42:05;1.70;99.90
21622;DHT22;10973;46.706;12.340;2022-12-10T15:44:38;1.70;99.90
21622;DHT22;10973;46.706;12.340;2022-12-10T15:47:17;1.70;99.90
21622;DHT22;10973;46.706;12.340;2022-12-10T15:49:45;1.70;99.90
21622;DHT22;10973;46.706;12.340;2022-12-10T15:52:29;1.70;99.90
21622;DHT22;10973;46.706;12.340;2022-12-10T15:54:58;1.70;99.90
21622;DHT22;10973;46.706;12.340;2022-12-10T15:57:31;1.70;99.90
21622;DHT22;10973;46.706;12.340;2022-12-10T16:00:06;1.70;99.90
21622;DHT22;10973;46.706;12.340;2022-12-10T16:07:55;1.70;99.90
21622;DHT22;10973;46.706;12.340;2022-12-10T16:10:26;1.70;99.90
21622;DHT22;10973;46.706;12.340;2022-12-10T16:13:00;1.70;99.90
21622;DHT22;10973;46.706;12.340;2022-12-10T16:15:33;1.60;99.90
21622;DHT22;10973;46.706;12.340;2022-12-10T16:18:08;1.60;99.90
21622;DHT22;10973;46.706;12.340;2022-12-10T16:20:37;1.70;99.90
21622;DHT22;10973;46.706;12.340;2022-12-10T16:23:05;1.60;99.90
21622;DHT22;10973;46.706;12.340;2022-12-10T16:25:32;1.60;99.90
21622;DHT22;10973;46.706;12.340;2022-12-10T16:28:01;1.60;99.90
21622;DHT22;10973;46.706;12.340;2022-12-10T16:30:40;1.60;99.90
21622;DHT22;10973;46.706;12.340;2022-12-10T16:33:17;1.70;99.90
21622;DHT22;10973;46.706;12.340;2022-12-10T16:35:50;1.70;99.90
21622;DHT22;10973;46.706;12.340;2022-12-10T16:38:19;1.60;99.90
21622;DHT22;10973;46.706;12.340;2022-12-10T16:40:48;1.60;99.90
21622;DHT22;10973;46.706;12.340;2022-12-10T16:43:19;1.60;99.90
21622;DHT22;10973;46.706;12.340;2022-12-10T16:45:49;1.60;99.90
21622;DHT22;10973;46.706;12.340;2022-12-10T16:48:17;1.60;99.90
21622;DHT22;10973;46.706;12.340;2022-12-10T16:50:45;1.50;99.90
21622;DHT22;10973;46.706;12.340;2022-12-10T16:53:16;1.50;99.90
21622;DHT22;10973;46.706;12.340;2022-12-10T16:55:44;1.50;99.90
21622;DHT22;10973;46.706;12.340;2022-12-10T16:58:14;1.50;99.90
21622;DHT22;10973;46.706;12.340;2022-12-10T17:00:44;1.50;99.90
21622;DHT22;10973;46.706;12.340;2022-12-10T17:03:16;1.50;99.90
21622;DHT22;10973;46.706;12.340;2022-12-10T17:05:54;1.50;99.90
21622;DHT22;10973;46.706;12.340;2022-12-10T17:08:25;1.50;99.90
21622;DHT22;10973;46.706;12.340;2022-12-10T17:10:54;1.50;99.90
21622;DHT22;10973;46.706;12.340;2022-12-10T17:13:23;1.50;99.90
21622;DHT22;10973;46.706;12.340;2022-12-10T17:15:52;1.50;99.90
21622;DHT22;10973;46.706;12.340;2022-12-10T17:18:19;1.50;99.90
21622;DHT22;10973;46.706;12.340;2022-12-10T17:20:47;1.40;99.90
21622;DHT22;10973;46.706;12.340;2022-12-10T17:23:14;1.50;99.90
21622;DHT22;10973;46.706;12.340;2022-12-10T17:25:43;1.40;99.90
21622;DHT22;10973;46.706;12.340;2022-12-10T17:28:15;1.40;99.90
21622;DHT22;10973;46.706;12.340;2022-12-10T17:30:46;1.30;99.90
21622;DHT22;10973;46.706;12.340;2022-12-10T17:33:15;1.30;99.90
21622;DHT22;10973;46.706;12.340;2022-12-10T17:35:45;1.20;99.90
21622;DHT22;10973;46.706;12.340;2022-12-10T17:38:15;1.10;99.90
21622;DHT22;10973;46.706;12.340;2022-12-10T17:40:44;1.10;99.90
21622;DHT22;10973;46.706;12.340;2022-12-10T17:43:12;1.10;99.90
21622;DHT22;10973;46.706;12.340;2022-12-10T17:45:42;1.00;99.90
21622;DHT22;10973;46.706;12.340;2022-12-10T17:48:15;1.00;99.90
21622;DHT22;10973;46.706;12.340;2022-12-10T17:50:45;1.10;99.90
21622;DHT22;10973;46.706;12.340;2022-12-10T17:53:14;1.10;99.90
21622;DHT22;10973;46.706;12.340;2022-12-10T17:55:47;1.10;99.90
21622;DHT22;10973;46.706;12.340;2022-12-10T17:58:18;1.10;99.90
21622;DHT22;10973;46.706;12.340;2022-12-10T18:00:46;1.20;99.90
21622;DHT22;10973;46.706;12.340;2022-12-10T18:03:14;1.20;99.90
21622;DHT22;10973;46.706;12.340;2022-12-10T18:05:41;1.20;99.90
21622;DHT22;10973;46.706;12.340;2022-12-10T18:08:13;1.20;99.90
21622;DHT22;10973;46.706;12.340;2022-12-10T18:10:43;1.20;99.90
21622;DHT22;10973;46.706;12.340;2022-12-10T18:13:10;1.30;99.90
21622;DHT22;10973;46.706;12.340;2022-12-10T18:15:37;1.30;99.90
21622;DHT22;10973;46.706;12.340;2022-12-10T18:18:05;1.30;99.90
21622;DHT22;10973;46.706;12.340;2022-12-10T18:20:38;1.20;99.90
21622;DHT22;10973;46.706;12.340;2022-12-10T18:23:08;1.30;99.90
21622;DHT22;10973;46.706;12.340;2022-12-10T18:25:37;1.30;99.90